sensor_id;sensor_type;location;lat;lon;timestamp;temperature;humidity
10692;DHT22;5396;50.950;6.988;2022-08-16T00:01:58;19.90;99.90
10692;DHT22;5396;50.950;6.988;2022-08-16T00:04:24;19.90;99.90
10692;DHT22;5396;50.950;6.988;2022-08-16T00:06:50;19.90;99.90
10692;DHT22;5396;50.950;6.988;2022-08-16T00:09:16;19.90;99.90
10692;DHT22;5396;50.950;6.988;2022-08-16T00:11:43;19.90;99.90
10692;DHT22;5396;50.950;6.988;2022-08-16T00:14:14;19.80;99.90
10692;DHT22;5396;50.950;6.988;2022-08-16T00:16:40;19.80;99.90
10692;DHT22;5396;50.950;6.988;2022-08-16T00:19:06;19.80;99.90
10692;DHT22;5396;50.950;6.988;2022-08-16T00:21:33;19.80;99.90
10692;DHT22;5396;50.950;6.988;2022-08-16T00:23:59;19.70;99.90
10692;DHT22;5396;50.950;6.988;2022-08-16T00:26:25;19.70;99.90
10692;DHT22;5396;50.950;6.988;2022-08-16T00:28:51;19.70;99.90
10692;DHT22;5396;50.950;6.988;2022-08-16T00:31:17;19.70;99.90
10692;DHT22;5396;50.950;6.988;2022-08-16T00:33:42;19.70;99.90
10692;DHT22;5396;50.950;6.988;2022-08-16T00:36:08;19.70;99.90
10692;DHT22;5396;50.950;6.988;2022-08-16T00:38:34;19.70;99.90
10692;DHT22;5396;50.950;6.988;2022-08-16T00:41:00;19.60;99.90
10692;DHT22;5396;50.950;6.988;2022-08-16T00:43:31;19.60;99.90
10692;DHT22;5396;50.950;6.988;2022-08-16T00:46:28;19.60;99.90
10692;DHT22;5396;50.950;6.988;2022-08-16T00:48:55;19.60;99.90
10692;DHT22;5396;50.950;6.988;2022-08-16T00:51:22;19.60;99.90
10692;DHT22;5396;50.950;6.988;2022-08-16T00:53:49;19.60;99.90
10692;DHT22;5396;50.950;6.988;2022-08-16T00:56:19;19.60;99.90
10692;DHT22;5396;50.950;6.988;2022-08-16T00:58:47;19.60;99.90
10692;DHT22;5396;50.950;6.988;2022-08-16T01:01:14;19.60;99.90
10692;DHT22;5396;50.950;6.988;2022-08-16T01:03:43;19.50;99.90
10692;DHT22;5396;50.950;6.988;2022-08-16T01:06:12;19.50;99.90
10692;DHT22;5396;50.950;6.988;2022-08-16T01:08:40;19.50;99.90
10692;DHT22;5396;50.950;6.988;2022-08-16T01:11:07;19.50;99.90
10692;DHT22;5396;50.950;6.988;2022-08-16T01:13:35;19.40;99.90
10692;DHT22;5396;50.950;6.988;2022-08-16T01:16:05;19.40;99.90
10692;DHT22;5396;50.950;6.988;2022-08-16T01:18:42;19.40;99.90
10692;DHT22;5396;50.950;6.988;2022-08-16T01:26:15;19.40;99.90
10692;DHT22;5396;50.950;6.988;2022-08-16T01:28:42;19.30;99.90
10692;DHT22;5396;50.950;6.988;2022-08-16T01:31:09;19.30;99.90
10692;DHT22;5396;50.950;6.988;2022-08-16T01:33:36;19.30;99.90
10692;DHT22;5396;50.950;6.988;2022-08-16T01:36:05;19.20;99.90
10692;DHT22;5396;50.950;6.988;2022-08-16T01:38:35;19.20;99.90
10692;DHT22;5396;50.950;6.988;2022-08-16T01:41:13;19.20;99.90
10692;DHT22;5396;50.950;6.988;2022-08-16T01:43:41;19.20;99.90
10692;DHT22;5396;50.950;6.988;2022-08-16T01:46:29;19.20;99.90
10692;DHT22;5396;50.950;6.988;2022-08-16T01:48:57;19.10;99.90
10692;DHT22;5396;50.950;6.988;2022-08-16T01:51:25;19.10;99.90
10692;DHT22;5396;50.950;6.988;2022-08-16T01:53:52;19.10;99.90
10692;DHT22;5396;50.950;6.988;2022-08-16T01:56:19;19.10;99.90
10692;DHT22;5396;50.950;6.988;2022-08-16T01:58:45;19.10;99.90
10692;DHT22;5396;50.950;6.988;2022-08-16T02:01:10;19.00;99.90
10692;DHT22;5396;50.950;6.988;2022-08-16T02:03:36;19.00;99.90
10692;DHT22;5396;50.950;6.988;2022-08-16T02:06:02;19.00;99.90
10692;DHT22;5396;50.950;6.988;2022-08-16T02:08:28;19.00;99.90
10692;DHT22;5396;50.950;6.988;2022-08-16T02:10:54;19.00;99.90
10692;DHT22;5396;50.950;6.988;2022-08-16T02:13:20;19.00;99.90
10692;DHT22;5396;50.950;6.988;2022-08-16T02:15:45;19.00;99.90
10692;DHT22;5396;50.950;6.988;2022-08-16T02:18:12;19.00;99.90
10692;DHT22;5396;50.950;6.988;2022-08-16T02:20:39;19.00;99.90
10692;DHT22;5396;50.950;6.988;2022-08-16T02:23:06;19.00;99.90
10692;DHT22;5396;50.950;6.988;2022-08-16T02:25:33;19.00;99.90
10692;DHT22;5396;50.950;6.988;2022-08-16T02:27:59;19.00;99.90
10692;DHT22;5396;50.950;6.988;2022-08-16T02:30:27;19.00;99.90
10692;DHT22;5396;50.950;6.988;2022-08-16T02:32:54;19.00;99.90
10692;DHT22;5396;50.950;6.988;2022-08-16T02:35:21;18.90;99.90
10692;DHT22;5396;50.950;6.988;2022-08-16T02:37:47;18.90;99.90
10692;DHT22;5396;50.950;6.988;2022-08-16T02:40:14;18.90;99.90
10692;DHT22;5396;50.950;6.988;2022-08-16T02:42:45;18.90;99.90
10692;DHT22;5396;50.950;6.988;2022-08-16T02:45:12;18.90;99.90
10692;DHT22;5396;50.950;6.988;2022-08-16T02:47:38;18.90;99.90
10692;DHT22;5396;50.950;6.988;2022-08-16T02:50:05;18.90;99.90
10692;DHT22;5396;50.950;6.988;2022-08-16T02:52:31;18.90;99.90
10692;DHT22;5396;50.950;6.988;2022-08-16T02:54:57;18.90;99.90
10692;DHT22;5396;50.950;6.988;2022-08-16T02:57:23;18.90;99.90
10692;DHT22;5396;50.950;6.988;2022-08-16T02:59:49;18.90;99.90
10692;DHT22;5396;50.950;6.988;2022-08-16T03:02:15;18.90;99.90
10692;DHT22;5396;50.950;6.988;2022-08-16T03:04:41;18.90;99.90
10692;DHT22;5396;50.950;6.988;2022-08-16T03:07:07;18.80;99.90
10692;DHT22;5396;50.950;6.988;2022-08-16T03:09:33;18.80;99.90
10692;DHT22;5396;50.950;6.988;2022-08-16T03:11:59;18.80;99.90
10692;DHT22;5396;50.950;6.988;2022-08-16T03:14:25;18.80;99.90
10692;DHT22;5396;50.950;6.988;2022-08-16T03:16:52;18.80;99.90
10692;DHT22;5396;50.950;6.988;2022-08-16T03:19:18;18.80;99.90
10692;DHT22;5396;50.950;6.988;2022-08-16T03:21:44;18.70;99.90
10692;DHT22;5396;50.950;6.988;2022-08-16T03:24:11;18.70;99.90
10692;DHT22;5396;50.950;6.988;2022-08-16T03:26:36;18.70;99.90
10692;DHT22;5396;50.950;6.988;2022-08-16T03:29:03;18.70;99.90
10692;DHT22;5396;50.950;6.988;2022-08-16T03:31:28;18.70;99.90
10692;DHT22;5396;50.950;6.988;2022-08-16T03:33:54;18.70;99.90
10692;DHT22;5396;50.950;6.988;2022-08-16T03:36:20;18.60;99.90
10692;DHT22;5396;50.950;6.988;2022-08-16T03:38:45;18.60;99.90
10692;DHT22;5396;50.950;6.988;2022-08-16T03:41:12;18.60;99.90
10692;DHT22;5396;50.950;6.988;2022-08-16T03:43:38;18.60;99.90
10692;DHT22;5396;50.950;6.988;2022-08-16T03:46:04;18.60;99.90
10692;DHT22;5396;50.950;6.988;2022-08-16T03:48:32;18.60;99.90
10692;DHT22;5396;50.950;6.988;2022-08-16T03:50:59;18.60;99.90
10692;DHT22;5396;50.950;6.988;2022-08-16T03:53:27;18.50;99.90
10692;DHT22;5396;50.950;6.988;2022-08-16T03:55:52;18.50;99.90
10692;DHT22;5396;50.950;6.988;2022-08-16T03:58:18;18.50;99.90
10692;DHT22;5396;50.950;6.988;2022-08-16T04:00:44;18.50;99.90
10692;DHT22;5396;50.950;6.988;2022-08-16T04:03:10;18.50;99.90
10692;DHT22;5396;50.950;6.988;2022-08-16T04:05:41;18.50;99.90
10692;DHT22;5396;50.950;6.988;2022-08-16T04:08:07;18.50;99.90
10692;DHT22;5396;50.950;6.988;2022-08-16T04:10:33;18.50;99.90
10692;DHT22;5396;50.950;6.988;2022-08-16T04:12:59;18.50;99.90
10692;DHT22;5396;50.950;6.988;2022-08-16T04:15:25;18.50;99.90
10692;DHT22;5396;50.950;6.988;2022-08-16T04:17:54;18.50;99.90
10692;DHT22;5396;50.950;6.988;2022-08-16T04:20:20;18.50;99.90
10692;DHT22;5396;50.950;6.988;2022-08-16T04:22:46;18.50;99.90
10692;DHT22;5396;50.950;6.988;2022-08-16T04:25:12;18.50;99.90
10692;DHT22;5396;50.950;6.988;2022-08-16T04:27:39;18.50;99.90
10692;DHT22;5396;50.950;6.988;2022-08-16T04:30:11;18.50;99.90
10692;DHT22;5396;50.950;6.988;2022-08-16T04:32:38;18.40;99.90
10692;DHT22;5396;50.950;6.988;2022-08-16T04:35:08;18.40;99.90
10692;DHT22;5396;50.950;6.988;2022-08-16T04:37:34;18.40;99.90
10692;DHT22;5396;50.950;6.988;2022-08-16T04:40:01;18.40;99.90
10692;DHT22;5396;50.950;6.988;2022-08-16T04:42:27;18.40;99.90
10692;DHT22;5396;50.950;6.988;2022-08-16T04:44:53;18.40;99.90
10692;DHT22;5396;50.950;6.988;2022-08-16T04:47:20;18.40;99.90
10692;DHT22;5396;50.950;6.988;2022-08-16T04:49:46;18.40;99.90
10692;DHT22;5396;50.950;6.988;2022-08-16T04:52:11;18.40;99.90
10692;DHT22;5396;50.950;6.988;2022-08-16T04:54:37;18.40;99.90
10692;DHT22;5396;50.950;6.988;2022-08-16T04:57:05;18.40;99.90
10692;DHT22;5396;50.950;6.988;2022-08-16T04:59:31;18.40;99.90
10692;DHT22;5396;50.950;6.988;2022-08-16T05:01:56;18.40;99.90
10692;DHT22;5396;50.950;6.988;2022-08-16T05:04:22;18.40;99.90
10692;DHT22;5396;50.950;6.988;2022-08-16T05:06:49;18.50;99.90
10692;DHT22;5396;50.950;6.988;2022-08-16T05:09:15;18.50;99.90
10692;DHT22;5396;50.950;6.988;2022-08-16T05:11:41;18.50;99.90
10692;DHT22;5396;50.950;6.988;2022-08-16T05:14:06;18.60;99.90
10692;DHT22;5396;50.950;6.988;2022-08-16T05:16:32;18.60;99.90
10692;DHT22;5396;50.950;6.988;2022-08-16T05:18:59;18.70;99.90
10692;DHT22;5396;50.950;6.988;2022-08-16T05:21:27;18.70;99.90
10692;DHT22;5396;50.950;6.988;2022-08-16T05:23:53;18.70;99.90
10692;DHT22;5396;50.950;6.988;2022-08-16T05:26:19;18.70;99.90
10692;DHT22;5396;50.950;6.988;2022-08-16T05:28:44;18.70;99.90
10692;DHT22;5396;50.950;6.988;2022-08-16T05:31:10;18.80;99.90
10692;DHT22;5396;50.950;6.988;2022-08-16T05:33:35;18.80;99.90
10692;DHT22;5396;50.950;6.988;2022-08-16T05:36:02;18.80;99.90
10692;DHT22;5396;50.950;6.988;2022-08-16T05:38:28;18.90;99.90
10692;DHT22;5396;50.950;6.988;2022-08-16T05:40:58;18.90;99.90
10692;DHT22;5396;50.950;6.988;2022-08-16T05:43:23;19.00;99.90
10692;DHT22;5396;50.950;6.988;2022-08-16T05:45:50;19.00;99.90
10692;DHT22;5396;50.950;6.988;2022-08-16T05:48:15;19.10;99.90
10692;DHT22;5396;50.950;6.988;2022-08-16T05:50:41;19.10;99.90
10692;DHT22;5396;50.950;6.988;2022-08-16T05:53:07;19.20;99.90
10692;DHT22;5396;50.950;6.988;2022-08-16T05:55:32;19.30;99.90
10692;DHT22;5396;50.950;6.988;2022-08-16T05:57:58;19.30;99.90
10692;DHT22;5396;50.950;6.988;2022-08-16T06:00:24;19.40;99.90
10692;DHT22;5396;50.950;6.988;2022-08-16T06:02:50;19.40;99.90
10692;DHT22;5396;50.950;6.988;2022-08-16T06:05:16;19.50;99.90
10692;DHT22;5396;50.950;6.988;2022-08-16T06:07:42;19.50;99.90
10692;DHT22;5396;50.950;6.988;2022-08-16T06:10:08;19.60;99.90
10692;DHT22;5396;50.950;6.988;2022-08-16T06:12:35;19.70;99.90
10692;DHT22;5396;50.950;6.988;2022-08-16T06:15:06;19.70;99.90
10692;DHT22;5396;50.950;6.988;2022-08-16T06:17:32;19.80;99.90
10692;DHT22;5396;50.950;6.988;2022-08-16T06:19:58;19.90;99.90
10692;DHT22;5396;50.950;6.988;2022-08-16T06:22:23;20.00;99.90
10692;DHT22;5396;50.950;6.988;2022-08-16T06:24:49;20.00;99.90
10692;DHT22;5396;50.950;6.988;2022-08-16T06:27:15;20.00;99.90
10692;DHT22;5396;50.950;6.988;2022-08-16T06:29:41;20.10;99.90
10692;DHT22;5396;50.950;6.988;2022-08-16T06:32:08;20.10;99.90
10692;DHT22;5396;50.950;6.988;2022-08-16T06:34:36;20.20;99.90
10692;DHT22;5396;50.950;6.988;2022-08-16T06:37:02;20.30;99.90
10692;DHT22;5396;50.950;6.988;2022-08-16T06:39:28;20.40;99.90
10692;DHT22;5396;50.950;6.988;2022-08-16T06:41:54;20.40;99.90
10692;DHT22;5396;50.950;6.988;2022-08-16T06:44:19;20.50;99.90
10692;DHT22;5396;50.950;6.988;2022-08-16T06:46:45;20.60;99.90
10692;DHT22;5396;50.950;6.988;2022-08-16T06:49:12;20.60;99.90
10692;DHT22;5396;50.950;6.988;2022-08-16T06:51:40;20.60;99.90
10692;DHT22;5396;50.950;6.988;2022-08-16T06:54:06;20.70;99.90
10692;DHT22;5396;50.950;6.988;2022-08-16T06:56:32;20.80;99.90
10692;DHT22;5396;50.950;6.988;2022-08-16T06:58:58;20.90;99.90
10692;DHT22;5396;50.950;6.988;2022-08-16T07:01:24;20.90;99.90
10692;DHT22;5396;50.950;6.988;2022-08-16T07:03:50;21.00;99.90
10692;DHT22;5396;50.950;6.988;2022-08-16T07:06:16;21.10;99.90
10692;DHT22;5396;50.950;6.988;2022-08-16T07:08:44;21.20;99.90
10692;DHT22;5396;50.950;6.988;2022-08-16T07:11:11;21.30;99.90
10692;DHT22;5396;50.950;6.988;2022-08-16T07:13:37;21.30;99.90
10692;DHT22;5396;50.950;6.988;2022-08-16T07:16:03;21.40;99.90
10692;DHT22;5396;50.950;6.988;2022-08-16T07:18:30;21.50;99.90
10692;DHT22;5396;50.950;6.988;2022-08-16T07:20:56;21.50;99.90
10692;DHT22;5396;50.950;6.988;2022-08-16T07:23:23;21.60;99.90
10692;DHT22;5396;50.950;6.988;2022-08-16T07:25:49;21.70;99.90
10692;DHT22;5396;50.950;6.988;2022-08-16T07:28:16;21.70;99.90
10692;DHT22;5396;50.950;6.988;2022-08-16T07:30:43;21.80;99.90
10692;DHT22;5396;50.950;6.988;2022-08-16T07:33:10;21.90;99.90
10692;DHT22;5396;50.950;6.988;2022-08-16T07:35:36;22.00;99.90
10692;DHT22;5396;50.950;6.988;2022-08-16T07:38:04;22.00;99.90
10692;DHT22;5396;50.950;6.988;2022-08-16T07:40:31;22.10;99.90
10692;DHT22;5396;50.950;6.988;2022-08-16T07:42:57;22.20;99.90
10692;DHT22;5396;50.950;6.988;2022-08-16T07:45:23;22.30;99.90
10692;DHT22;5396;50.950;6.988;2022-08-16T07:47:48;22.40;99.90
10692;DHT22;5396;50.950;6.988;2022-08-16T07:50:15;22.50;99.90
10692;DHT22;5396;50.950;6.988;2022-08-16T07:52:42;22.50;99.90
10692;DHT22;5396;50.950;6.988;2022-08-16T07:55:09;22.60;99.90
10692;DHT22;5396;50.950;6.988;2022-08-16T07:57:35;22.70;99.90
10692;DHT22;5396;50.950;6.988;2022-08-16T08:00:01;22.80;99.90
10692;DHT22;5396;50.950;6.988;2022-08-16T08:02:27;22.90;99.90
10692;DHT22;5396;50.950;6.988;2022-08-16T08:04:54;23.00;99.90
10692;DHT22;5396;50.950;6.988;2022-08-16T08:07:20;23.00;99.90
10692;DHT22;5396;50.950;6.988;2022-08-16T08:09:46;23.10;99.90
10692;DHT22;5396;50.950;6.988;2022-08-16T08:12:12;23.10;99.90
10692;DHT22;5396;50.950;6.988;2022-08-16T08:14:38;23.20;99.90
10692;DHT22;5396;50.950;6.988;2022-08-16T08:17:04;23.20;99.90
10692;DHT22;5396;50.950;6.988;2022-08-16T08:19:32;23.20;99.90
10692;DHT22;5396;50.950;6.988;2022-08-16T08:21:58;23.20;99.90
10692;DHT22;5396;50.950;6.988;2022-08-16T08:24:24;23.20;99.90
10692;DHT22;5396;50.950;6.988;2022-08-16T08:26:51;23.30;99.90
10692;DHT22;5396;50.950;6.988;2022-08-16T08:29:17;23.40;99.90
10692;DHT22;5396;50.950;6.988;2022-08-16T08:31:43;23.50;99.90
10692;DHT22;5396;50.950;6.988;2022-08-16T08:34:08;23.50;99.90
10692;DHT22;5396;50.950;6.988;2022-08-16T08:36:34;23.60;99.90
10692;DHT22;5396;50.950;6.988;2022-08-16T08:39:02;23.70;99.90
10692;DHT22;5396;50.950;6.988;2022-08-16T08:41:28;23.80;99.90
10692;DHT22;5396;50.950;6.988;2022-08-16T08:43:55;23.80;99.90
10692;DHT22;5396;50.950;6.988;2022-08-16T08:46:22;24.00;99.90
10692;DHT22;5396;50.950;6.988;2022-08-16T08:48:52;24.00;99.90
10692;DHT22;5396;50.950;6.988;2022-08-16T08:51:18;24.00;99.90
10692;DHT22;5396;50.950;6.988;2022-08-16T08:53:44;24.10;99.90
10692;DHT22;5396;50.950;6.988;2022-08-16T08:56:12;24.10;99.90
10692;DHT22;5396;50.950;6.988;2022-08-16T08:58:38;24.20;99.90
10692;DHT22;5396;50.950;6.988;2022-08-16T09:01:05;24.20;99.90
10692;DHT22;5396;50.950;6.988;2022-08-16T09:03:35;24.30;99.90
10692;DHT22;5396;50.950;6.988;2022-08-16T09:06:02;24.40;99.90
10692;DHT22;5396;50.950;6.988;2022-08-16T09:08:29;24.60;99.90
10692;DHT22;5396;50.950;6.988;2022-08-16T09:10:56;24.70;99.90
10692;DHT22;5396;50.950;6.988;2022-08-16T09:13:22;24.70;99.90
10692;DHT22;5396;50.950;6.988;2022-08-16T09:15:53;24.90;99.90
10692;DHT22;5396;50.950;6.988;2022-08-16T09:18:20;25.00;99.90
10692;DHT22;5396;50.950;6.988;2022-08-16T09:20:47;25.10;99.90
10692;DHT22;5396;50.950;6.988;2022-08-16T09:23:13;25.20;99.90
10692;DHT22;5396;50.950;6.988;2022-08-16T09:25:40;25.30;99.90
10692;DHT22;5396;50.950;6.988;2022-08-16T09:28:05;25.40;99.90
10692;DHT22;5396;50.950;6.988;2022-08-16T09:30:32;25.40;99.90
10692;DHT22;5396;50.950;6.988;2022-08-16T09:33:02;25.40;99.90
10692;DHT22;5396;50.950;6.988;2022-08-16T09:35:28;25.50;99.90
10692;DHT22;5396;50.950;6.988;2022-08-16T09:37:54;25.60;99.90
10692;DHT22;5396;50.950;6.988;2022-08-16T09:40:22;25.70;99.90
10692;DHT22;5396;50.950;6.988;2022-08-16T09:42:48;25.70;99.90
10692;DHT22;5396;50.950;6.988;2022-08-16T09:45:14;25.80;99.90
10692;DHT22;5396;50.950;6.988;2022-08-16T09:47:41;25.70;99.90
10692;DHT22;5396;50.950;6.988;2022-08-16T09:50:08;25.60;99.90
10692;DHT22;5396;50.950;6.988;2022-08-16T09:52:34;25.50;99.90
10692;DHT22;5396;50.950;6.988;2022-08-16T09:55:03;25.40;99.90
10692;DHT22;5396;50.950;6.988;2022-08-16T09:57:30;25.40;99.90
10692;DHT22;5396;50.950;6.988;2022-08-16T09:59:56;25.40;99.90
10692;DHT22;5396;50.950;6.988;2022-08-16T10:02:21;25.50;99.90
10692;DHT22;5396;50.950;6.988;2022-08-16T10:04:49;25.70;99.90
10692;DHT22;5396;50.950;6.988;2022-08-16T10:07:14;25.70;99.90
10692;DHT22;5396;50.950;6.988;2022-08-16T10:09:40;25.80;99.90
10692;DHT22;5396;50.950;6.988;2022-08-16T10:12:06;25.80;99.90
10692;DHT22;5396;50.950;6.988;2022-08-16T10:14:50;26.00;99.90
10692;DHT22;5396;50.950;6.988;2022-08-16T10:17:16;26.10;99.90
10692;DHT22;5396;50.950;6.988;2022-08-16T10:19:41;26.00;99.90
10692;DHT22;5396;50.950;6.988;2022-08-16T10:22:07;26.20;99.90
10692;DHT22;5396;50.950;6.988;2022-08-16T10:24:35;26.30;99.90
10692;DHT22;5396;50.950;6.988;2022-08-16T10:27:00;26.40;99.90
10692;DHT22;5396;50.950;6.988;2022-08-16T10:29:26;26.50;99.90
10692;DHT22;5396;50.950;6.988;2022-08-16T10:31:52;26.60;99.90
10692;DHT22;5396;50.950;6.988;2022-08-16T10:34:17;26.60;99.90
10692;DHT22;5396;50.950;6.988;2022-08-16T10:36:43;26.60;99.90
10692;DHT22;5396;50.950;6.988;2022-08-16T10:39:08;26.60;99.90
10692;DHT22;5396;50.950;6.988;2022-08-16T10:41:34;26.50;99.90
10692;DHT22;5396;50.950;6.988;2022-08-16T10:44:00;26.70;99.90
10692;DHT22;5396;50.950;6.988;2022-08-16T10:46:26;26.80;99.90
10692;DHT22;5396;50.950;6.988;2022-08-16T10:48:52;26.90;99.90
10692;DHT22;5396;50.950;6.988;2022-08-16T10:51:17;27.10;99.90
10692;DHT22;5396;50.950;6.988;2022-08-16T10:53:43;27.30;99.90
10692;DHT22;5396;50.950;6.988;2022-08-16T10:56:11;27.50;99.90
10692;DHT22;5396;50.950;6.988;2022-08-16T10:58:38;27.60;99.90
10692;DHT22;5396;50.950;6.988;2022-08-16T11:01:06;27.60;99.90
10692;DHT22;5396;50.950;6.988;2022-08-16T11:03:33;27.60;99.90
10692;DHT22;5396;50.950;6.988;2022-08-16T11:05:58;27.70;99.90
10692;DHT22;5396;50.950;6.988;2022-08-16T11:08:24;27.90;99.90
10692;DHT22;5396;50.950;6.988;2022-08-16T11:10:50;28.10;99.90
10692;DHT22;5396;50.950;6.988;2022-08-16T11:13:21;28.20;99.90
10692;DHT22;5396;50.950;6.988;2022-08-16T11:15:47;28.40;99.90
10692;DHT22;5396;50.950;6.988;2022-08-16T11:18:13;28.50;99.90
10692;DHT22;5396;50.950;6.988;2022-08-16T11:20:39;28.60;99.90
10692;DHT22;5396;50.950;6.988;2022-08-16T11:23:05;28.60;99.90
10692;DHT22;5396;50.950;6.988;2022-08-16T11:25:32;28.50;99.90
10692;DHT22;5396;50.950;6.988;2022-08-16T11:27:59;28.30;99.90
10692;DHT22;5396;50.950;6.988;2022-08-16T11:30:27;28.40;99.90
10692;DHT22;5396;50.950;6.988;2022-08-16T11:32:53;28.50;99.90
10692;DHT22;5396;50.950;6.988;2022-08-16T11:35:24;28.70;99.90
10692;DHT22;5396;50.950;6.988;2022-08-16T11:38:06;28.70;99.90
10692;DHT22;5396;50.950;6.988;2022-08-16T11:40:36;28.70;99.90
10692;DHT22;5396;50.950;6.988;2022-08-16T11:43:03;28.70;99.90
10692;DHT22;5396;50.950;6.988;2022-08-16T11:45:29;28.70;99.90
10692;DHT22;5396;50.950;6.988;2022-08-16T11:47:55;28.60;99.90
10692;DHT22;5396;50.950;6.988;2022-08-16T11:50:21;28.60;99.90
10692;DHT22;5396;50.950;6.988;2022-08-16T11:52:48;28.60;99.90
10692;DHT22;5396;50.950;6.988;2022-08-16T11:55:14;28.60;99.90
10692;DHT22;5396;50.950;6.988;2022-08-16T11:57:40;28.60;99.90
10692;DHT22;5396;50.950;6.988;2022-08-16T12:00:09;28.60;99.90
10692;DHT22;5396;50.950;6.988;2022-08-16T12:02:36;28.70;99.90
10692;DHT22;5396;50.950;6.988;2022-08-16T12:05:04;28.90;99.90
10692;DHT22;5396;50.950;6.988;2022-08-16T12:07:31;29.00;99.90
10692;DHT22;5396;50.950;6.988;2022-08-16T12:09:58;29.20;99.90
10692;DHT22;5396;50.950;6.988;2022-08-16T12:12:23;29.50;99.90
10692;DHT22;5396;50.950;6.988;2022-08-16T12:14:50;29.50;99.90
10692;DHT22;5396;50.950;6.988;2022-08-16T12:17:15;29.40;99.90
10692;DHT22;5396;50.950;6.988;2022-08-16T12:19:43;29.10;99.90
10692;DHT22;5396;50.950;6.988;2022-08-16T12:22:08;28.90;99.90
10692;DHT22;5396;50.950;6.988;2022-08-16T12:24:34;29.00;99.90
10692;DHT22;5396;50.950;6.988;2022-08-16T12:27:00;29.20;99.90
10692;DHT22;5396;50.950;6.988;2022-08-16T12:29:27;29.30;99.90
10692;DHT22;5396;50.950;6.988;2022-08-16T12:31:52;29.70;99.90
10692;DHT22;5396;50.950;6.988;2022-08-16T12:34:18;30.10;99.90
10692;DHT22;5396;50.950;6.988;2022-08-16T12:36:44;30.30;99.90
10692;DHT22;5396;50.950;6.988;2022-08-16T12:39:12;30.40;99.90
10692;DHT22;5396;50.950;6.988;2022-08-16T12:41:38;30.50;99.90
10692;DHT22;5396;50.950;6.988;2022-08-16T12:44:04;30.30;99.90
10692;DHT22;5396;50.950;6.988;2022-08-16T12:46:31;30.20;99.90
10692;DHT22;5396;50.950;6.988;2022-08-16T12:48:59;30.30;99.90
10692;DHT22;5396;50.950;6.988;2022-08-16T12:51:30;30.70;99.90
10692;DHT22;5396;50.950;6.988;2022-08-16T12:54:00;31.60;99.90
10692;DHT22;5396;50.950;6.988;2022-08-16T12:56:29;32.90;99.90
10692;DHT22;5396;50.950;6.988;2022-08-16T12:58:56;34.40;50.90
10692;DHT22;5396;50.950;6.988;2022-08-16T13:01:26;35.60;46.60
10692;DHT22;5396;50.950;6.988;2022-08-16T13:03:54;36.50;40.80
10692;DHT22;5396;50.950;6.988;2022-08-16T13:06:21;37.00;37.50
10692;DHT22;5396;50.950;6.988;2022-08-16T13:08:47;37.20;99.90
10692;DHT22;5396;50.950;6.988;2022-08-16T13:11:17;37.50;99.90
10692;DHT22;5396;50.950;6.988;2022-08-16T13:13:45;37.70;99.90
10692;DHT22;5396;50.950;6.988;2022-08-16T13:16:11;37.20;99.90
10692;DHT22;5396;50.950;6.988;2022-08-16T13:18:37;37.00;99.90
10692;DHT22;5396;50.950;6.988;2022-08-16T13:21:05;37.00;99.90
10692;DHT22;5396;50.950;6.988;2022-08-16T13:23:32;37.00;99.90
10692;DHT22;5396;50.950;6.988;2022-08-16T13:25:57;36.80;99.90
10692;DHT22;5396;50.950;6.988;2022-08-16T13:28:23;37.20;99.90
10692;DHT22;5396;50.950;6.988;2022-08-16T13:30:51;37.60;99.90
10692;DHT22;5396;50.950;6.988;2022-08-16T13:33:20;38.20;99.90
10692;DHT22;5396;50.950;6.988;2022-08-16T13:35:49;38.90;99.90
10692;DHT22;5396;50.950;6.988;2022-08-16T13:38:16;38.90;99.90
10692;DHT22;5396;50.950;6.988;2022-08-16T13:40:41;37.70;99.90
10692;DHT22;5396;50.950;6.988;2022-08-16T13:43:07;36.50;99.90
10692;DHT22;5396;50.950;6.988;2022-08-16T13:45:33;35.10;99.90
10692;DHT22;5396;50.950;6.988;2022-08-16T13:48:00;33.70;99.90
10692;DHT22;5396;50.950;6.988;2022-08-16T13:50:26;32.50;99.90
10692;DHT22;5396;50.950;6.988;2022-08-16T13:52:53;32.30;99.90
10692;DHT22;5396;50.950;6.988;2022-08-16T13:55:19;33.20;99.90
10692;DHT22;5396;50.950;6.988;2022-08-16T13:57:45;34.20;99.90
10692;DHT22;5396;50.950;6.988;2022-08-16T14:00:11;34.60;99.90
10692;DHT22;5396;50.950;6.988;2022-08-16T14:02:37;35.50;99.90
10692;DHT22;5396;50.950;6.988;2022-08-16T14:05:04;36.20;99.90
10692;DHT22;5396;50.950;6.988;2022-08-16T14:07:30;37.10;99.90
10692;DHT22;5396;50.950;6.988;2022-08-16T14:09:55;37.80;99.90
10692;DHT22;5396;50.950;6.988;2022-08-16T14:12:24;38.20;99.90
10692;DHT22;5396;50.950;6.988;2022-08-16T14:14:51;38.10;99.90
10692;DHT22;5396;50.950;6.988;2022-08-16T14:17:18;37.80;99.90
10692;DHT22;5396;50.950;6.988;2022-08-16T14:19:44;36.50;99.90
10692;DHT22;5396;50.950;6.988;2022-08-16T14:22:18;34.70;99.90
10692;DHT22;5396;50.950;6.988;2022-08-16T14:24:45;33.30;99.90
10692;DHT22;5396;50.950;6.988;2022-08-16T14:27:11;32.30;99.90
10692;DHT22;5396;50.950;6.988;2022-08-16T14:29:37;31.70;99.90
10692;DHT22;5396;50.950;6.988;2022-08-16T14:32:05;32.00;99.90
10692;DHT22;5396;50.950;6.988;2022-08-16T14:34:31;32.40;99.90
10692;DHT22;5396;50.950;6.988;2022-08-16T14:36:56;32.60;99.90
10692;DHT22;5396;50.950;6.988;2022-08-16T14:39:22;32.60;99.90
10692;DHT22;5396;50.950;6.988;2022-08-16T14:41:48;32.40;99.90
10692;DHT22;5396;50.950;6.988;2022-08-16T14:44:14;31.80;99.90
10692;DHT22;5396;50.950;6.988;2022-08-16T14:46:40;31.20;99.90
10692;DHT22;5396;50.950;6.988;2022-08-16T14:49:06;31.00;99.90
10692;DHT22;5396;50.950;6.988;2022-08-16T14:51:31;30.90;99.90
10692;DHT22;5396;50.950;6.988;2022-08-16T14:53:57;30.80;99.90
10692;DHT22;5396;50.950;6.988;2022-08-16T14:56:25;30.70;99.90
10692;DHT22;5396;50.950;6.988;2022-08-16T14:58:51;30.80;99.90
10692;DHT22;5396;50.950;6.988;2022-08-16T15:01:16;30.80;99.90
10692;DHT22;5396;50.950;6.988;2022-08-16T15:03:42;30.70;99.90
10692;DHT22;5396;50.950;6.988;2022-08-16T15:06:08;30.70;99.90
10692;DHT22;5396;50.950;6.988;2022-08-16T15:08:33;30.80;99.90
10692;DHT22;5396;50.950;6.988;2022-08-16T15:11:00;30.80;99.90
10692;DHT22;5396;50.950;6.988;2022-08-16T15:13:25;30.70;99.90
10692;DHT22;5396;50.950;6.988;2022-08-16T15:15:51;30.70;99.90
10692;DHT22;5396;50.950;6.988;2022-08-16T15:18:18;30.70;99.90
10692;DHT22;5396;50.950;6.988;2022-08-16T15:20:44;30.60;99.90
10692;DHT22;5396;50.950;6.988;2022-08-16T15:23:10;30.60;99.90
10692;DHT22;5396;50.950;6.988;2022-08-16T15:25:44;30.50;99.90
10692;DHT22;5396;50.950;6.988;2022-08-16T15:28:12;30.40;99.90
10692;DHT22;5396;50.950;6.988;2022-08-16T15:30:38;30.20;99.90
10692;DHT22;5396;50.950;6.988;2022-08-16T15:33:10;30.10;99.90
10692;DHT22;5396;50.950;6.988;2022-08-16T15:35:37;30.10;99.90
10692;DHT22;5396;50.950;6.988;2022-08-16T15:38:04;30.10;99.90
10692;DHT22;5396;50.950;6.988;2022-08-16T15:40:30;30.10;99.90
10692;DHT22;5396;50.950;6.988;2022-08-16T15:42:56;30.20;99.90
10692;DHT22;5396;50.950;6.988;2022-08-16T15:45:23;30.30;99.90
10692;DHT22;5396;50.950;6.988;2022-08-16T15:48:08;30.30;99.90